createdAt,value
2024-05-09T00:00:18.682Z,3.83
2024-05-09T00:02:53.117Z,3.63
2024-05-09T00:05:19.806Z,4.10
2024-05-09T00:07:46.510Z,4.65
2024-05-09T00:10:22.290Z,3.88
2024-05-09T00:12:55.703Z,3.83
2024-05-09T00:15:22.257Z,3.70
2024-05-09T00:17:48.850Z,3.60
2024-05-09T00:20:20.520Z,3.65
2024-05-09T00:22:51.275Z,4.20
2024-05-09T00:25:17.889Z,4.20
2024-05-09T00:27:44.502Z,3.95
2024-05-09T00:30:17.460Z,4.40
2024-05-09T00:32:48.182Z,3.72
2024-05-09T00:35:14.909Z,4.13
2024-05-09T00:37:41.460Z,4.18
2024-05-09T00:40:15.094Z,4.22
2024-05-09T00:42:48.852Z,3.60
2024-05-09T00:45:15.447Z,4.00
2024-05-09T00:47:43.224Z,3.95
2024-05-09T00:50:15.957Z,3.50
2024-05-09T00:52:49.288Z,3.65
2024-05-09T00:55:17.292Z,3.60
2024-05-09T00:57:44.728Z,3.85
2024-05-09T01:00:22.402Z,3.55
2024-05-09T01:02:57.146Z,3.22
2024-05-09T01:05:23.820Z,3.97
2024-05-09T01:07:50.398Z,3.47
2024-05-09T01:10:21.321Z,3.72
2024-05-09T01:12:54.291Z,3.22
2024-05-09T01:15:20.811Z,3.67
2024-05-09T01:17:48.471Z,3.20
2024-05-09T01:20:20.235Z,4.07
2024-05-09T01:22:54.403Z,3.20
2024-05-09T01:25:21.097Z,3.47
2024-05-09T01:27:47.612Z,3.78
2024-05-09T01:30:17.451Z,3.67
2024-05-09T01:32:48.066Z,3.67
2024-05-09T01:35:14.807Z,3.28
2024-05-09T01:37:41.569Z,3.33
2024-05-09T01:40:12.349Z,3.72
2024-05-09T01:42:44.874Z,3.95
2024-05-09T01:45:12.277Z,4.30
2024-05-09T01:47:39.116Z,3.55
2024-05-09T01:50:09.001Z,3.47
2024-05-09T01:52:38.843Z,3.72
2024-05-09T01:55:07.153Z,3.08
2024-05-09T01:57:33.899Z,3.47
2024-05-09T02:00:00.423Z,3.60
2024-05-09T02:02:27.181Z,2.92
2024-05-09T02:04:53.940Z,3.80
2024-05-09T02:07:20.760Z,3.30
2024-05-09T02:09:47.353Z,3.67
2024-05-09T02:12:13.995Z,3.42
2024-05-09T02:14:40.605Z,3.13
2024-05-09T02:17:07.283Z,3.13
2024-05-09T02:19:34.000Z,3.20
2024-05-09T02:22:00.633Z,3.83
2024-05-09T02:24:27.296Z,3.40
2024-05-09T02:26:53.807Z,3.85
2024-05-09T02:29:20.342Z,3.53
2024-05-09T02:31:47.071Z,3.30
2024-05-09T02:34:13.818Z,3.45
2024-05-09T02:36:40.381Z,3.00
2024-05-09T02:39:06.957Z,3.47
2024-05-09T02:41:33.527Z,3.05
2024-05-09T02:44:00.119Z,3.00
2024-05-09T02:46:26.706Z,3.35
2024-05-09T02:48:53.434Z,3.25
2024-05-09T02:51:20.030Z,3.42
2024-05-09T02:53:46.676Z,3.25
2024-05-09T02:56:13.390Z,2.80
2024-05-09T02:58:39.968Z,3.60
2024-05-09T03:01:06.580Z,2.83
2024-05-09T03:03:33.491Z,3.20
2024-05-09T03:06:01.939Z,3.83
2024-05-09T03:08:28.615Z,3.13
2024-05-09T03:10:55.226Z,3.25
2024-05-09T03:13:21.834Z,3.58
2024-05-09T03:15:48.342Z,3.33
2024-05-09T03:18:15.005Z,3.28
2024-05-09T03:20:43.754Z,2.72
2024-05-09T03:23:10.747Z,3.65
2024-05-09T03:25:38.490Z,3.33
2024-05-09T03:28:05.584Z,3.35
2024-05-09T03:30:39.920Z,3.15
2024-05-09T03:33:19.913Z,3.40
2024-05-09T03:35:48.044Z,3.40
2024-05-09T03:38:15.281Z,3.55
2024-05-09T03:40:49.895Z,3.65
2024-05-09T03:43:17.702Z,3.05
2024-05-09T03:45:44.991Z,3.40
2024-05-09T03:48:11.841Z,3.92
2024-05-09T03:50:38.876Z,3.55
2024-05-09T03:53:06.320Z,3.53
2024-05-09T03:55:32.947Z,2.90
2024-05-09T03:57:59.674Z,3.35
2024-05-09T04:00:35.016Z,3.55
2024-05-09T04:03:10.752Z,3.25
2024-05-09T04:05:44.399Z,2.60
2024-05-09T04:08:11.721Z,3.38
2024-05-09T04:10:38.477Z,3.50
2024-05-09T04:13:05.378Z,3.40
2024-05-09T04:15:32.466Z,3.58
2024-05-09T04:18:02.601Z,3.53
2024-05-09T04:20:37.380Z,3.22
2024-05-09T04:23:08.237Z,3.50
2024-05-09T04:25:35.803Z,3.90
2024-05-09T04:28:02.513Z,3.20
2024-05-09T04:30:36.743Z,3.35
2024-05-09T04:33:08.512Z,3.58
2024-05-09T04:35:37.122Z,3.20
2024-05-09T04:38:04.475Z,2.88
2024-05-09T04:40:34.621Z,3.03
2024-05-09T04:43:07.581Z,3.40
2024-05-09T04:45:34.958Z,3.75
2024-05-09T04:48:02.338Z,3.28
2024-05-09T04:50:35.722Z,3.38
2024-05-09T04:53:06.747Z,3.97
2024-05-09T04:55:34.114Z,4.28
2024-05-09T04:58:01.097Z,4.10
2024-05-09T05:00:35.499Z,3.53
2024-05-09T05:03:10.260Z,4.40
2024-05-09T05:05:42.663Z,3.83
2024-05-09T05:08:13.881Z,3.53
2024-05-09T05:10:41.310Z,4.57
2024-05-09T05:13:18.361Z,3.47
2024-05-09T05:15:55.932Z,3.30
2024-05-09T05:18:23.839Z,2.88
2024-05-09T05:20:50.647Z,3.33
2024-05-09T05:23:21.854Z,4.10
2024-05-09T05:25:49.956Z,3.72
2024-05-09T05:28:17.151Z,5.55
2024-05-09T05:30:44.023Z,5.55
2024-05-09T05:33:12.583Z,5.88
2024-05-09T05:35:40.319Z,6.05
2024-05-09T05:38:08.137Z,6.25
2024-05-09T05:40:40.393Z,6.10
2024-05-09T05:43:09.741Z,6.50
2024-05-09T05:48:04.773Z,5.90
2024-05-09T05:50:35.686Z,6.50
2024-05-09T05:53:05.917Z,7.53
2024-05-09T05:55:32.724Z,7.68
2024-05-09T05:57:59.549Z,7.82
2024-05-09T06:00:34.086Z,6.68
2024-05-09T06:03:05.176Z,7.72
2024-05-09T06:05:32.178Z,7.63
2024-05-09T06:07:59.052Z,8.15
2024-05-09T06:10:30.386Z,7.93
2024-05-09T06:13:04.402Z,8.18
2024-05-09T06:15:30.950Z,8.18
2024-05-09T06:17:57.652Z,8.45
2024-05-09T06:20:33.913Z,7.40
2024-05-09T06:23:03.525Z,8.55
2024-05-09T06:25:30.230Z,8.38
2024-05-09T06:27:56.860Z,8.05
2024-05-09T06:30:30.391Z,8.13
2024-05-09T06:33:05.505Z,7.60
2024-05-09T06:35:32.970Z,8.73
2024-05-09T06:37:59.798Z,8.52
2024-05-09T06:40:35.899Z,8.25
2024-05-09T06:43:05.861Z,8.95
2024-05-09T06:45:32.566Z,8.40
2024-05-09T06:47:59.469Z,8.30
2024-05-09T06:50:31.132Z,9.25
2024-05-09T06:53:02.719Z,8.65
2024-05-09T06:55:29.378Z,8.15
2024-05-09T06:57:55.989Z,8.13
2024-05-09T07:00:30.399Z,8.63
2024-05-09T07:03:08.393Z,8.55
2024-05-09T07:05:35.316Z,8.30
2024-05-09T07:08:01.945Z,7.97
2024-05-09T07:10:34.131Z,8.48
2024-05-09T07:13:01.967Z,7.95
2024-05-09T07:15:28.571Z,7.95
2024-05-09T07:17:55.477Z,8.05
2024-05-09T07:20:31.707Z,7.57
2024-05-09T07:23:02.727Z,7.57
2024-05-09T07:25:29.538Z,7.10
2024-05-09T07:27:56.180Z,8.05
2024-05-09T07:30:27.801Z,8.10
2024-05-09T07:33:00.347Z,7.05
2024-05-09T07:35:27.471Z,8.10
2024-05-09T07:37:54.360Z,7.60
2024-05-09T07:40:31.719Z,7.90
2024-05-09T07:43:07.420Z,7.53
2024-05-09T07:52:23.425Z,7.47
2024-05-09T07:53:39.060Z,7.45
2024-05-09T07:56:09.739Z,7.13
2024-05-09T07:58:37.105Z,7.30
2024-05-09T08:01:04.007Z,7.25
2024-05-09T08:03:31.269Z,6.63
2024-05-09T08:05:57.912Z,6.13
2024-05-09T08:08:24.453Z,6.45
2024-05-09T08:10:51.539Z,6.47
2024-05-09T08:13:18.435Z,6.05
2024-05-09T08:15:45.210Z,5.97
2024-05-09T08:18:12.130Z,5.85
2024-05-09T08:20:39.765Z,5.43
2024-05-09T08:23:06.850Z,6.35
2024-05-09T08:25:33.525Z,5.55
2024-05-09T08:28:00.149Z,5.90
2024-05-09T08:30:33.439Z,5.50
2024-05-09T08:33:04.347Z,5.95
2024-05-09T08:35:31.595Z,5.88
2024-05-09T08:37:58.282Z,5.88
2024-05-09T08:40:32.828Z,5.80
2024-05-09T08:43:02.977Z,6.00
2024-05-09T08:45:31.187Z,5.38
2024-05-09T08:48:01.266Z,5.80
2024-05-09T08:50:36.135Z,6.03
2024-05-09T08:53:05.873Z,6.85
2024-05-09T08:55:32.701Z,6.43
2024-05-09T08:58:02.968Z,6.35
2024-05-09T09:00:36.768Z,5.63
2024-05-09T09:03:09.093Z,6.38
2024-05-09T09:05:38.909Z,6.38
2024-05-09T09:08:07.830Z,6.28
2024-05-09T09:10:35.230Z,5.50
2024-05-09T09:13:04.459Z,5.82
2024-05-09T09:15:31.691Z,6.25
2024-05-09T09:17:59.955Z,6.25
2024-05-09T09:23:03.772Z,6.50
2024-05-09T09:25:32.068Z,6.10
2024-05-09T09:27:59.247Z,6.65
2024-05-09T09:30:36.262Z,5.78
2024-05-09T09:33:06.267Z,6.38
2024-05-09T09:38:02.541Z,5.80
2024-05-09T09:40:36.218Z,5.85
2024-05-09T09:43:14.746Z,5.57
2024-05-09T09:45:43.533Z,6.05
2024-05-09T09:50:38.842Z,6.35
2024-05-09T09:53:07.585Z,6.10
2024-05-09T09:55:35.615Z,5.78
2024-05-09T09:58:04.160Z,5.55
2024-05-09T10:00:33.402Z,5.53
2024-05-09T10:03:01.705Z,5.88
2024-05-09T10:05:30.007Z,5.78
2024-05-09T10:07:58.379Z,6.07
2024-05-09T10:10:32.053Z,5.30
2024-05-09T10:13:04.156Z,5.70
2024-05-09T10:15:42.847Z,5.38
2024-05-09T10:18:09.726Z,5.32
2024-05-09T10:20:46.472Z,4.85
2024-05-09T10:23:26.794Z,4.70
2024-05-09T10:28:32.025Z,4.68
2024-05-09T10:31:08.867Z,5.03
2024-05-09T10:33:55.712Z,4.13
2024-05-09T10:36:26.626Z,3.97
2024-05-09T10:38:54.429Z,4.65
2024-05-09T10:41:22.989Z,5.05
2024-05-09T10:43:50.478Z,4.38
2024-05-09T10:46:19.142Z,5.10
2024-05-09T10:48:47.379Z,4.47
2024-05-09T10:51:14.200Z,4.28
2024-05-09T10:53:45.455Z,4.22
2024-05-09T10:56:14.398Z,5.15
2024-05-09T10:58:41.102Z,5.07
2024-05-09T11:01:09.235Z,5.72
2024-05-09T11:03:36.889Z,6.22
2024-05-09T11:06:04.182Z,5.82
2024-05-09T11:08:32.480Z,4.97
2024-05-09T11:10:59.841Z,5.47
2024-05-09T11:13:34.817Z,5.45
2024-05-09T11:16:02.757Z,5.03
2024-05-09T11:18:35.150Z,4.75
2024-05-09T11:21:12.580Z,5.38
2024-05-09T11:23:39.747Z,5.35
2024-05-09T11:26:06.959Z,5.13
2024-05-09T11:28:33.502Z,5.68
2024-05-09T11:31:10.545Z,4.88
2024-05-09T11:33:45.545Z,6.10
2024-05-09T11:36:12.935Z,6.22
2024-05-09T11:38:40.125Z,6.07
2024-05-09T11:41:06.636Z,6.53
2024-05-09T11:43:33.602Z,6.55
2024-05-09T11:46:01.175Z,6.70
2024-05-09T11:48:28.243Z,5.55
2024-05-09T11:50:55.525Z,5.93
2024-05-09T11:53:22.578Z,6.22
2024-05-09T11:55:49.304Z,6.68
2024-05-09T11:58:17.819Z,5.97
2024-05-09T12:00:45.330Z,6.22
2024-05-09T12:03:12.411Z,6.25
2024-05-09T12:05:39.254Z,6.35
2024-05-09T12:08:06.867Z,6.30
2024-05-09T12:10:35.757Z,6.88
2024-05-09T12:13:05.067Z,6.47
2024-05-09T12:15:33.881Z,7.38
2024-05-09T12:18:03.351Z,7.07
2024-05-09T12:20:36.698Z,7.10
2024-05-09T12:23:06.247Z,5.88
2024-05-09T12:25:32.945Z,6.78
2024-05-09T12:27:59.940Z,6.03
2024-05-09T12:30:35.429Z,6.70
2024-05-09T12:33:06.180Z,6.18
2024-05-09T12:35:33.038Z,7.43
2024-05-09T12:37:59.840Z,6.72
2024-05-09T12:40:34.598Z,6.45
2024-05-09T12:43:04.824Z,6.90
2024-05-09T12:45:31.863Z,6.50
2024-05-09T12:47:58.691Z,7.10
2024-05-09T12:50:31.920Z,6.72
2024-05-09T12:53:00.947Z,7.07
2024-05-09T12:55:28.531Z,7.50
2024-05-09T12:57:57.249Z,7.18
2024-05-09T13:00:31.111Z,7.50
2024-05-09T13:03:00.642Z,7.18
2024-05-09T13:05:27.811Z,6.75
2024-05-09T13:07:56.264Z,8.10
2024-05-09T13:10:29.423Z,7.75
2024-05-09T13:12:59.812Z,8.02
2024-05-09T13:15:26.769Z,7.47
2024-05-09T13:17:53.431Z,6.88
2024-05-09T13:20:28.993Z,7.63
2024-05-09T13:23:01.819Z,7.72
2024-05-09T13:25:28.512Z,7.25
2024-05-09T13:27:56.297Z,7.82
2024-05-09T13:30:29.764Z,7.75
2024-05-09T13:33:06.337Z,7.28
2024-05-09T13:35:35.216Z,7.65
2024-05-09T13:38:02.599Z,8.00
2024-05-09T13:40:33.807Z,7.63
2024-05-09T13:43:02.983Z,7.57
2024-05-09T13:45:29.863Z,7.25
2024-05-09T13:47:56.824Z,6.97
2024-05-09T13:50:31.549Z,7.68
2024-05-09T13:53:02.147Z,7.15
2024-05-09T13:55:28.811Z,7.97
2024-05-09T13:57:55.814Z,6.18
2024-05-09T14:00:32.296Z,6.93
2024-05-09T14:03:09.383Z,7.45
2024-05-09T14:05:36.274Z,7.03
2024-05-09T14:08:03.190Z,7.03
2024-05-09T14:10:31.870Z,7.22
2024-05-09T14:13:00.261Z,7.32
2024-05-09T14:15:27.035Z,7.15
2024-05-09T14:17:54.511Z,7.22
2024-05-09T14:20:30.326Z,6.25
2024-05-09T14:22:59.408Z,7.15
2024-05-09T14:25:31.724Z,6.93
2024-05-09T14:27:58.519Z,7.72
2024-05-09T14:30:34.882Z,7.00
2024-05-09T14:33:05.875Z,6.57
2024-05-09T14:35:33.219Z,7.00
2024-05-09T14:37:59.925Z,7.25
2024-05-09T14:40:36.916Z,7.13
2024-05-09T14:43:11.302Z,7.25
2024-05-09T14:45:38.485Z,7.43
2024-05-09T14:48:06.171Z,7.32
2024-05-09T14:50:37.361Z,7.28
2024-05-09T14:53:07.499Z,7.00
2024-05-09T14:55:37.511Z,7.75
2024-05-09T14:58:08.611Z,8.63
2024-05-09T15:00:41.303Z,6.93
2024-05-09T15:03:11.298Z,7.38
2024-05-09T15:05:38.104Z,8.73
2024-05-09T15:08:08.642Z,7.80
2024-05-09T15:10:36.882Z,7.95
2024-05-09T15:13:05.376Z,7.95
2024-05-09T15:15:32.988Z,7.63
2024-05-09T15:18:00.311Z,7.45
2024-05-09T15:20:33.955Z,7.25
2024-05-09T15:23:03.366Z,7.00
2024-05-09T15:25:30.381Z,7.88
2024-05-09T15:27:57.549Z,8.55
2024-05-09T15:30:30.405Z,9.02
2024-05-09T15:32:59.687Z,8.40
2024-05-09T15:35:26.314Z,9.23
2024-05-09T15:37:52.908Z,9.32
2024-05-09T15:40:26.847Z,9.30
2024-05-09T15:43:02.435Z,9.98
2024-05-09T15:45:29.331Z,10.75
2024-05-09T15:47:56.943Z,11.27
2024-05-09T15:50:35.168Z,10.00
2024-05-09T15:53:05.928Z,11.15
2024-05-09T15:55:33.937Z,11.05
2024-05-09T16:00:36.574Z,10.35
2024-05-09T16:03:07.122Z,9.45
2024-05-09T16:05:34.023Z,8.15
2024-05-09T16:08:00.997Z,8.73
2024-05-09T16:10:32.566Z,10.00
2024-05-09T16:13:01.043Z,7.68
2024-05-09T16:15:27.762Z,11.55
2024-05-09T16:17:58.541Z,11.90
2024-05-09T16:20:34.761Z,11.10
2024-05-09T16:23:07.063Z,11.60
2024-05-09T16:25:33.674Z,10.13
2024-05-09T16:28:00.692Z,12.25
2024-05-09T16:30:34.147Z,11.85
2024-05-09T16:33:03.744Z,10.80
2024-05-09T16:35:31.068Z,10.23
2024-05-09T16:37:57.682Z,10.18
2024-05-09T16:40:34.283Z,10.90
2024-05-09T16:43:05.890Z,11.63
2024-05-09T16:45:33.187Z,12.38
2024-05-09T16:48:00.529Z,11.23
2024-05-09T16:50:32.597Z,12.02
2024-05-09T16:53:01.581Z,12.13
2024-05-09T16:55:28.234Z,12.02
2024-05-09T16:57:56.100Z,12.73
2024-05-09T17:00:31.798Z,12.35
2024-05-09T17:03:07.421Z,11.70
2024-05-09T17:05:35.405Z,12.23
2024-05-09T17:08:02.533Z,12.80
2024-05-09T17:10:33.093Z,12.18
2024-05-09T17:13:02.474Z,13.73
2024-05-09T17:15:29.635Z,13.50
2024-05-09T17:17:56.745Z,11.50
2024-05-09T17:20:31.285Z,12.68
2024-05-09T17:23:02.274Z,12.93
2024-05-09T17:25:29.228Z,13.90
2024-05-09T17:27:56.590Z,13.52
2024-05-09T17:30:29.395Z,11.20
2024-05-09T17:33:03.186Z,12.25
2024-05-09T17:35:30.013Z,11.93
2024-05-09T17:37:56.817Z,12.57
2024-05-09T17:42:53.142Z,11.55
2024-05-09T17:45:20.626Z,12.45
2024-05-09T17:47:47.709Z,11.45
2024-05-09T17:50:21.006Z,11.45
2024-05-09T17:52:53.644Z,12.30
2024-05-09T17:55:20.743Z,12.20
2024-05-09T17:57:47.475Z,12.43
2024-05-09T18:00:17.469Z,11.55
2024-05-09T18:02:49.974Z,11.45
2024-05-09T18:07:43.346Z,10.73
2024-05-09T18:10:19.034Z,10.75
2024-05-09T18:12:49.054Z,12.35
2024-05-09T18:15:15.662Z,11.20
2024-05-09T18:17:42.659Z,11.07
2024-05-09T18:20:14.136Z,11.15
2024-05-09T18:22:46.253Z,11.02
2024-05-09T18:25:13.125Z,11.70
2024-05-09T18:27:39.776Z,12.02
2024-05-09T18:30:09.484Z,11.10
2024-05-09T18:32:38.233Z,11.98
2024-05-09T18:35:05.189Z,11.93
2024-05-09T18:37:31.789Z,10.88
2024-05-09T18:39:58.416Z,12.40
2024-05-09T18:42:25.016Z,11.93
2024-05-09T18:44:51.592Z,11.45
2024-05-09T18:47:20.237Z,10.55
2024-05-09T18:49:47.130Z,11.38
2024-05-09T18:52:14.048Z,11.32
2024-05-09T18:54:40.725Z,11.07
2024-05-09T18:57:07.525Z,10.88
2024-05-09T18:59:37.123Z,11.57
2024-05-09T19:02:04.471Z,11.18
2024-05-09T19:04:31.530Z,10.98
2024-05-09T19:06:58.271Z,11.32
2024-05-09T19:09:24.861Z,11.27
2024-05-09T19:11:51.540Z,10.27
2024-05-09T19:14:18.308Z,11.95
2024-05-09T19:16:44.969Z,10.55
2024-05-09T19:19:12.419Z,11.98
2024-05-09T19:21:42.127Z,11.65
2024-05-09T19:24:10.568Z,11.38
2024-05-09T19:26:37.225Z,11.13
2024-05-09T19:29:03.814Z,11.45
2024-05-09T19:31:37.155Z,12.13
2024-05-09T19:34:03.778Z,11.68
2024-05-09T19:36:33.374Z,12.15
2024-05-09T19:38:59.964Z,10.85
2024-05-09T19:41:26.582Z,10.93
2024-05-09T19:43:55.807Z,12.77
2024-05-09T19:46:23.624Z,11.65
2024-05-09T19:48:50.615Z,13.10
2024-05-09T19:51:17.295Z,12.77
2024-05-09T19:53:46.395Z,12.43
2024-05-09T19:56:13.080Z,11.48
2024-05-09T19:58:41.351Z,11.02
2024-05-09T20:01:10.762Z,11.13
2024-05-09T20:03:38.074Z,12.48
2024-05-09T20:06:05.061Z,12.63
2024-05-09T20:08:33.736Z,12.85
2024-05-09T20:11:00.349Z,11.77
2024-05-09T20:13:27.246Z,12.15
2024-05-09T20:16:01.370Z,13.07
2024-05-09T20:18:28.266Z,12.15
2024-05-09T20:20:55.079Z,12.82
2024-05-09T20:23:21.837Z,13.23
2024-05-09T20:25:48.409Z,12.80
2024-05-09T20:28:15.046Z,11.65
2024-05-09T20:30:46.841Z,13.13
2024-05-09T20:33:14.254Z,12.65
2024-05-09T20:35:46.043Z,12.05
2024-05-09T20:38:16.787Z,12.73
2024-05-09T20:40:43.858Z,12.55
2024-05-09T20:43:10.958Z,16.67
2024-05-09T20:45:38.123Z,14.43
2024-05-09T20:48:06.100Z,13.90
2024-05-09T20:50:38.675Z,14.63
2024-05-09T20:53:13.179Z,14.13
2024-05-09T20:55:41.051Z,13.30
2024-05-09T20:58:08.395Z,15.25
2024-05-09T21:00:40.051Z,15.38
2024-05-09T21:03:11.481Z,15.20
2024-05-09T21:05:39.035Z,13.82
2024-05-09T21:08:06.332Z,13.65
2024-05-09T21:10:34.150Z,15.27
2024-05-09T21:13:03.360Z,14.52
2024-05-09T21:15:30.795Z,16.23
2024-05-09T21:17:57.687Z,14.63
2024-05-09T21:20:30.921Z,14.05
2024-05-09T21:22:59.574Z,14.65
2024-05-09T21:25:26.598Z,14.65
2024-05-09T21:27:53.584Z,14.27
2024-05-09T21:30:31.580Z,13.52
2024-05-09T21:33:08.472Z,17.52
2024-05-09T21:35:40.938Z,15.27
2024-05-09T21:38:11.023Z,17.02
2024-05-09T21:40:38.525Z,16.23
2024-05-09T21:43:07.403Z,15.00
2024-05-09T21:48:05.101Z,15.18
2024-05-09T21:50:38.989Z,14.48
2024-05-09T21:53:08.083Z,15.35
2024-05-09T21:55:34.849Z,15.82
2024-05-09T21:58:01.813Z,14.18
2024-05-09T22:00:35.654Z,14.20
2024-05-09T22:03:05.860Z,14.57
2024-05-09T22:05:35.562Z,14.90
2024-05-09T22:08:04.222Z,14.20
2024-05-09T22:10:34.750Z,15.18
2024-05-09T22:13:04.863Z,17.13
2024-05-09T22:18:02.795Z,14.88
2024-05-09T22:20:36.535Z,16.17
2024-05-09T22:23:05.558Z,15.60
2024-05-09T22:25:32.802Z,15.15
2024-05-09T22:28:01.272Z,16.48
2024-05-09T22:30:35.609Z,15.20
2024-05-09T22:33:07.288Z,14.88
2024-05-09T22:35:34.092Z,15.40
2024-05-09T22:38:00.962Z,15.25
2024-05-09T22:40:38.415Z,14.90
2024-05-09T22:43:14.907Z,14.32
2024-05-09T22:45:41.691Z,15.00
2024-05-09T22:48:09.281Z,15.23
2024-05-09T22:50:36.154Z,14.90
2024-05-09T22:53:10.796Z,14.25
2024-05-09T22:55:37.307Z,15.60
2024-05-09T22:58:04.084Z,15.52
2024-05-09T23:00:33.421Z,15.13
2024-05-09T23:03:01.597Z,14.95
2024-05-09T23:05:29.012Z,15.27
2024-05-09T23:07:55.911Z,14.93
2024-05-09T23:10:30.895Z,14.90
2024-05-09T23:13:01.998Z,15.35
2024-05-09T23:15:28.742Z,14.98
2024-05-09T23:17:55.715Z,14.10
2024-05-09T23:20:33.115Z,14.82
2024-05-09T23:23:05.123Z,15.23
2024-05-09T23:25:34.733Z,14.20
2024-05-09T23:28:01.410Z,16.60
2024-05-09T23:30:34.633Z,16.10
2024-05-09T23:33:08.472Z,14.35
2024-05-09T23:38:57.479Z,15.82
2024-05-09T23:41:27.107Z,14.25
2024-05-09T23:43:53.679Z,14.23
2024-05-09T23:46:20.895Z,14.27
2024-05-09T23:48:49.872Z,13.57
2024-05-09T23:53:51.688Z,13.65
2024-05-09T23:56:21.145Z,13.82
2024-05-09T23:58:48.375Z,13.20
